createdAt,value
2018-08-19T00:01:30.649Z,21.00
2018-08-19T00:03:59.913Z,20.90
2018-08-19T00:06:28.405Z,20.90
2018-08-19T00:09:01.323Z,20.90
2018-08-19T00:11:30.027Z,20.80
2018-08-19T00:13:58.611Z,20.80
2018-08-19T00:16:27.642Z,20.80
2018-08-19T00:18:56.215Z,20.80
2018-08-19T00:21:24.770Z,20.80
2018-08-19T00:23:53.353Z,20.80
2018-08-19T00:26:21.909Z,20.80
2018-08-19T00:28:51.017Z,20.70
2018-08-19T00:31:19.568Z,20.70
2018-08-19T00:33:48.004Z,20.80
2018-08-19T00:36:27.059Z,20.70
2018-08-19T00:38:56.859Z,20.70
2018-08-19T00:41:25.489Z,20.70
2018-08-19T00:43:54.524Z,20.60
2018-08-19T00:46:32.938Z,20.60
2018-08-19T00:49:02.105Z,20.60
2018-08-19T00:51:30.606Z,20.60
2018-08-19T00:54:00.040Z,20.60
2018-08-19T00:56:28.558Z,20.60
2018-08-19T00:58:57.210Z,20.60
2018-08-19T01:01:35.121Z,20.60
2018-08-19T01:04:05.117Z,20.50
2018-08-19T01:06:38.730Z,20.50
2018-08-19T01:09:07.802Z,20.50
2018-08-19T01:11:36.961Z,20.50
2018-08-19T01:14:10.066Z,20.50
2018-08-19T01:16:38.568Z,20.50
2018-08-19T01:19:07.422Z,20.40
2018-08-19T01:21:35.969Z,20.40
2018-08-19T01:24:07.757Z,20.30
2018-08-19T01:26:37.548Z,20.30
2018-08-19T01:29:07.783Z,20.40
2018-08-19T01:31:36.617Z,20.30
2018-08-19T01:34:07.107Z,20.30
2018-08-19T01:36:35.628Z,20.30
2018-08-19T01:39:07.569Z,20.30
2018-08-19T01:41:42.834Z,20.30
2018-08-19T01:44:13.359Z,20.30
2018-08-19T01:46:47.094Z,20.20
2018-08-19T01:49:15.936Z,20.20
2018-08-19T01:51:44.903Z,20.20
2018-08-19T01:54:17.403Z,20.20
2018-08-19T01:56:45.907Z,20.20
2018-08-19T01:59:14.508Z,20.20
2018-08-19T02:01:49.781Z,20.10
2018-08-19T02:04:19.257Z,20.10
2018-08-19T02:06:47.749Z,20.10
2018-08-19T02:09:17.631Z,20.10
2018-08-19T02:11:49.991Z,20.10
2018-08-19T02:14:22.723Z,20.10
2018-08-19T02:16:52.057Z,20.10
2018-08-19T02:19:20.657Z,20.10
2018-08-19T02:21:50.074Z,20.10
2018-08-19T02:24:19.646Z,20.10
2018-08-19T02:26:48.912Z,20.10
2018-08-19T02:29:31.774Z,20.10
2018-08-19T02:32:03.606Z,20.10
2018-08-19T02:34:34.340Z,20.00
2018-08-19T02:37:06.235Z,20.00
2018-08-19T02:39:37.147Z,20.00
2018-08-19T02:42:17.261Z,20.00
2018-08-19T02:44:46.257Z,19.90
2018-08-19T02:47:14.759Z,20.00
2018-08-19T02:49:43.350Z,19.90
2018-08-19T02:52:16.337Z,20.00
2018-08-19T02:54:44.822Z,19.90
2018-08-19T02:57:13.749Z,19.90
2018-08-19T02:59:42.288Z,19.90
2018-08-19T03:02:28.744Z,19.90
2018-08-19T03:04:58.082Z,19.90
2018-08-19T03:07:27.850Z,19.90
2018-08-19T03:10:01.836Z,19.90
2018-08-19T03:12:30.798Z,19.80
2018-08-19T03:14:59.701Z,19.80
2018-08-19T03:17:29.204Z,19.80
2018-08-19T03:19:58.800Z,19.80
2018-08-19T03:22:27.999Z,19.80
2018-08-19T03:24:58.229Z,19.80
2018-08-19T03:27:26.811Z,19.80
2018-08-19T03:30:00.561Z,19.80
2018-08-19T03:32:29.035Z,19.80
2018-08-19T03:35:06.402Z,19.70
2018-08-19T03:37:35.647Z,19.70
2018-08-19T03:40:05.286Z,19.70
2018-08-19T03:42:33.810Z,19.70
2018-08-19T03:45:08.860Z,19.70
2018-08-19T03:47:37.430Z,19.70
2018-08-19T03:50:12.008Z,19.70
2018-08-19T03:52:43.409Z,19.70
2018-08-19T03:55:30.480Z,19.70
2018-08-19T03:58:05.409Z,19.60
2018-08-19T04:00:38.087Z,19.70
2018-08-19T04:03:19.004Z,19.60
2018-08-19T04:05:52.044Z,19.60
2018-08-19T04:08:20.552Z,19.60
2018-08-19T04:10:49.525Z,19.60
2018-08-19T04:13:37.277Z,19.60
2018-08-19T04:16:07.132Z,19.60
2018-08-19T04:18:37.642Z,19.60
2018-08-19T04:21:10.936Z,19.60
2018-08-19T04:23:41.973Z,19.60
2018-08-19T04:26:10.563Z,19.60
2018-08-19T04:28:40.221Z,19.60
2018-08-19T04:31:24.856Z,19.60
2018-08-19T04:33:54.102Z,19.50
2018-08-19T04:36:23.805Z,19.60
2018-08-19T04:38:53.308Z,19.50
2018-08-19T04:41:21.860Z,19.50
2018-08-19T04:43:50.412Z,19.50
2018-08-19T04:46:18.928Z,19.50
2018-08-19T04:48:48.313Z,19.50
2018-08-19T04:51:16.951Z,19.50
2018-08-19T04:53:45.548Z,19.50
2018-08-19T04:56:14.061Z,19.50
2018-08-19T04:58:42.649Z,19.50
2018-08-19T05:01:12.310Z,19.50
2018-08-19T05:03:43.482Z,19.50
2018-08-19T05:06:11.938Z,19.50
2018-08-19T05:08:40.528Z,19.50
2018-08-19T05:11:09.082Z,19.60
2018-08-19T05:13:37.727Z,19.60
2018-08-19T05:16:06.285Z,19.60
2018-08-19T05:18:34.850Z,19.60
2018-08-19T05:21:08.601Z,19.60
2018-08-19T05:23:37.101Z,19.60
2018-08-19T05:26:05.683Z,19.60
2018-08-19T05:28:34.305Z,19.60
2018-08-19T05:31:02.821Z,19.60
2018-08-19T05:33:31.508Z,19.70
2018-08-19T05:36:00.100Z,19.70
2018-08-19T05:38:32.248Z,19.70
2018-08-19T05:41:01.994Z,19.70
2018-08-19T05:43:31.372Z,19.80
2018-08-19T05:46:01.097Z,19.80
2018-08-19T05:48:29.703Z,19.80
2018-08-19T05:50:58.543Z,19.80
2018-08-19T05:53:27.111Z,19.90
2018-08-19T05:55:55.641Z,19.90
2018-08-19T05:58:24.238Z,19.90
2018-08-19T06:01:01.173Z,20.00
2018-08-19T06:03:30.232Z,20.00
2018-08-19T06:05:59.457Z,20.10
2018-08-19T06:08:28.093Z,20.10
2018-08-19T06:10:56.583Z,20.10
2018-08-19T06:13:27.408Z,20.20
2018-08-19T06:15:56.074Z,20.30
2018-08-19T06:18:24.649Z,20.30
2018-08-19T06:20:53.189Z,20.40
2018-08-19T06:23:22.107Z,20.40
2018-08-19T06:25:50.658Z,20.40
2018-08-19T06:28:20.165Z,20.40
2018-08-19T06:30:48.754Z,20.40
2018-08-19T06:33:17.458Z,20.50
2018-08-19T06:35:46.045Z,20.50
2018-08-19T06:38:14.563Z,20.50
2018-08-19T06:40:43.076Z,20.50
2018-08-19T06:43:11.676Z,20.50
2018-08-19T06:45:40.211Z,20.60
2018-08-19T06:48:08.864Z,20.50
2018-08-19T06:50:37.454Z,20.50
2018-08-19T06:53:05.990Z,20.50
2018-08-19T06:55:34.620Z,20.50
2018-08-19T06:58:03.154Z,20.50
2018-08-19T07:00:32.566Z,20.50
2018-08-19T07:03:02.490Z,20.40
2018-08-19T07:05:31.676Z,20.40
2018-08-19T07:08:01.540Z,20.40
2018-08-19T07:10:35.444Z,20.30
2018-08-19T07:13:20.465Z,20.30
2018-08-19T07:15:49.026Z,20.30
2018-08-19T07:18:17.631Z,20.30
2018-08-19T07:20:46.176Z,20.30
2018-08-19T07:23:14.918Z,20.30
2018-08-19T07:25:44.688Z,20.30
2018-08-19T07:28:18.036Z,20.30
2018-08-19T07:30:46.657Z,20.30
2018-08-19T07:33:15.989Z,20.30
2018-08-19T07:35:45.284Z,20.30
2018-08-19T07:38:14.444Z,20.30
2018-08-19T07:40:43.002Z,20.30
2018-08-19T07:43:11.580Z,20.30
2018-08-19T07:45:40.120Z,20.40
2018-08-19T07:48:08.890Z,20.40
2018-08-19T07:50:38.405Z,20.50
2018-08-19T07:53:07.058Z,20.50
2018-08-19T07:55:36.437Z,20.50
2018-08-19T07:58:05.101Z,20.50
2018-08-19T08:00:39.061Z,20.50
2018-08-19T08:03:08.427Z,20.50
2018-08-19T08:05:42.692Z,20.50
2018-08-19T08:08:11.207Z,20.60
2018-08-19T08:10:40.347Z,20.60
2018-08-19T08:13:12.571Z,20.60
2018-08-19T08:15:46.576Z,20.60
2018-08-19T08:18:15.749Z,20.60
2018-08-19T08:20:44.281Z,20.60
2018-08-19T08:23:24.248Z,20.70
2018-08-19T08:25:57.090Z,20.70
2018-08-19T08:28:26.667Z,20.70
2018-08-19T08:30:55.294Z,20.70
2018-08-19T08:33:24.576Z,20.80
2018-08-19T08:35:57.436Z,20.80
2018-08-19T08:38:26.228Z,20.90
2018-08-19T08:40:55.481Z,21.00
2018-08-19T08:43:24.171Z,21.10
2018-08-19T08:45:55.199Z,21.10
2018-08-19T08:48:23.713Z,21.40
2018-08-19T08:50:52.284Z,21.60
2018-08-19T08:53:20.870Z,21.90
2018-08-19T08:55:49.328Z,22.30
2018-08-19T08:58:17.920Z,22.60
2018-08-19T09:00:46.602Z,22.80
2018-08-19T09:03:15.166Z,22.90
2018-08-19T09:05:43.837Z,22.90
2018-08-19T09:08:12.391Z,23.00
2018-08-19T09:10:40.963Z,23.00
2018-08-19T09:13:09.555Z,23.00
2018-08-19T09:15:38.056Z,23.10
2018-08-19T09:18:06.701Z,23.10
2018-08-19T09:20:35.247Z,23.20
2018-08-19T09:23:03.907Z,23.30
2018-08-19T09:25:32.409Z,23.40
2018-08-19T09:28:02.662Z,23.40
2018-08-19T09:30:39.814Z,23.50
2018-08-19T09:33:08.582Z,23.70
2018-08-19T09:35:38.158Z,23.60
2018-08-19T09:38:14.513Z,23.50
2018-08-19T09:40:43.487Z,23.40
2018-08-19T09:43:12.212Z,23.30
2018-08-19T09:45:41.029Z,23.30
2018-08-19T09:48:10.146Z,23.40
2018-08-19T09:50:39.600Z,23.40
2018-08-19T09:53:08.227Z,23.50
2018-08-19T09:55:48.254Z,23.60
2018-08-19T09:58:19.474Z,23.60
2018-08-19T10:00:53.800Z,23.70
2018-08-19T10:03:22.312Z,23.80
2018-08-19T10:05:51.377Z,23.80
2018-08-19T10:08:23.939Z,23.90
2018-08-19T10:10:55.852Z,24.10
2018-08-19T10:13:24.865Z,24.20
2018-08-19T10:15:53.721Z,24.40
2018-08-19T10:18:24.109Z,24.60
2018-08-19T10:20:54.199Z,25.20
2018-08-19T10:23:23.804Z,25.60
2018-08-19T10:25:52.956Z,25.40
2018-08-19T10:28:25.843Z,25.10
2018-08-19T10:30:59.166Z,25.10
2018-08-19T10:33:27.742Z,24.80
2018-08-19T10:35:58.430Z,24.60
2018-08-19T10:38:28.426Z,24.70
2018-08-19T10:41:05.451Z,24.60
2018-08-19T10:43:34.144Z,24.60
2018-08-19T10:46:02.796Z,24.60
2018-08-19T10:48:31.486Z,24.50
2018-08-19T10:51:02.727Z,24.70
2018-08-19T10:53:31.259Z,24.80
2018-08-19T10:56:01.821Z,24.80
2018-08-19T10:58:30.520Z,24.70
2018-08-19T11:00:59.077Z,24.90
2018-08-19T11:03:39.364Z,24.70
2018-08-19T11:06:07.907Z,24.70
2018-08-19T11:08:39.583Z,24.80
2018-08-19T11:11:08.215Z,24.80
2018-08-19T11:13:36.741Z,24.80
2018-08-19T11:16:06.951Z,24.80
2018-08-19T11:18:40.988Z,25.00
2018-08-19T11:21:11.225Z,24.90
2018-08-19T11:23:42.322Z,24.80
2018-08-19T11:26:11.295Z,24.90
2018-08-19T11:28:44.618Z,25.00
2018-08-19T11:31:36.413Z,25.00
2018-08-19T11:34:07.364Z,24.90
2018-08-19T11:36:41.204Z,24.80
2018-08-19T11:39:12.473Z,24.70
2018-08-19T11:41:41.138Z,24.70
2018-08-19T11:44:13.570Z,24.70
2018-08-19T11:46:43.063Z,24.60
2018-08-19T11:49:16.362Z,24.60
2018-08-19T11:52:00.095Z,24.50
2018-08-19T11:54:29.365Z,24.50
2018-08-19T11:57:07.235Z,25.00
2018-08-19T11:59:51.143Z,25.80
2018-08-19T12:02:23.192Z,26.50
2018-08-19T12:04:51.945Z,27.20
2018-08-19T12:07:20.724Z,27.80
2018-08-19T12:10:07.073Z,28.00
2018-08-19T12:12:46.722Z,27.90
2018-08-19T12:15:15.305Z,27.70
2018-08-19T12:17:44.270Z,27.70
2018-08-19T12:20:12.801Z,28.00
2018-08-19T12:22:43.596Z,28.50
2018-08-19T12:25:12.146Z,28.40
2018-08-19T12:27:40.937Z,27.90
2018-08-19T12:30:14.553Z,27.70
2018-08-19T12:32:43.166Z,28.00
2018-08-19T12:35:11.766Z,27.70
2018-08-19T12:37:40.390Z,27.60
2018-08-19T12:40:09.029Z,28.20
2018-08-19T12:42:43.818Z,28.40
2018-08-19T12:45:12.501Z,28.10
2018-08-19T12:47:41.271Z,28.00
2018-08-19T12:50:12.629Z,28.30
2018-08-19T12:52:41.270Z,28.80
2018-08-19T12:55:11.219Z,28.80
2018-08-19T12:57:40.761Z,29.30
2018-08-19T13:00:18.693Z,29.30
2018-08-19T13:02:48.939Z,29.80
2018-08-19T13:05:18.512Z,30.40
2018-08-19T13:07:47.251Z,30.10
2018-08-19T13:10:16.133Z,30.00
2018-08-19T13:12:56.548Z,30.10
2018-08-19T13:15:26.584Z,30.10
2018-08-19T13:17:55.103Z,29.70
2018-08-19T13:20:23.901Z,29.30
2018-08-19T13:22:57.883Z,29.10
2018-08-19T13:25:26.486Z,29.10
2018-08-19T13:27:55.092Z,29.00
2018-08-19T13:30:24.905Z,29.00
2018-08-19T13:32:53.880Z,28.60
2018-08-19T13:35:22.985Z,28.20
2018-08-19T13:37:51.804Z,27.80
2018-08-19T13:40:22.106Z,27.40
2018-08-19T13:42:50.684Z,27.20
2018-08-19T13:45:20.534Z,27.00
2018-08-19T13:47:50.524Z,26.80
2018-08-19T13:50:20.082Z,26.60
2018-08-19T13:52:48.790Z,26.50
2018-08-19T13:55:18.692Z,26.60
2018-08-19T13:57:47.685Z,26.70
2018-08-19T14:00:20.957Z,26.60
2018-08-19T14:02:52.640Z,26.50
2018-08-19T14:05:21.248Z,26.40
2018-08-19T14:07:50.085Z,26.40
2018-08-19T14:10:19.142Z,26.30
2018-08-19T14:12:48.139Z,26.10
2018-08-19T14:15:17.954Z,25.90
2018-08-19T14:17:46.933Z,25.80
2018-08-19T14:20:15.591Z,25.70
2018-08-19T14:22:44.219Z,25.60
2018-08-19T14:25:13.126Z,25.50
2018-08-19T14:27:42.088Z,25.40
2018-08-19T14:30:11.862Z,25.40
2018-08-19T14:32:45.129Z,25.30
2018-08-19T14:35:13.901Z,25.30
2018-08-19T14:37:42.983Z,25.20
2018-08-19T14:40:16.272Z,25.20
2018-08-19T14:42:45.122Z,25.10
2018-08-19T14:45:13.744Z,25.00
2018-08-19T14:47:42.833Z,25.00
2018-08-19T14:50:14.134Z,25.00
2018-08-19T14:52:42.838Z,24.90
2018-08-19T14:55:11.668Z,24.90
2018-08-19T14:57:40.938Z,24.90
2018-08-19T15:00:12.641Z,24.80
2018-08-19T15:02:41.539Z,24.80
2018-08-19T15:05:13.787Z,24.80
2018-08-19T15:07:42.447Z,24.80
2018-08-19T15:10:16.003Z,24.80
2018-08-19T15:12:45.016Z,24.70
2018-08-19T15:15:13.625Z,24.70
2018-08-19T15:17:46.451Z,24.60
2018-08-19T15:20:19.595Z,24.50
2018-08-19T15:22:48.659Z,24.40
2018-08-19T15:25:17.669Z,24.30
2018-08-19T15:27:51.705Z,24.20
2018-08-19T15:30:25.812Z,24.20
2018-08-19T15:32:55.038Z,24.10
2018-08-19T15:35:23.643Z,24.00
2018-08-19T15:37:52.270Z,24.00
2018-08-19T15:40:32.417Z,23.90
2018-08-19T15:43:01.688Z,23.80
2018-08-19T15:45:31.845Z,23.80
2018-08-19T15:48:01.164Z,23.80
2018-08-19T15:50:31.316Z,23.70
2018-08-19T15:53:01.131Z,23.70
2018-08-19T15:55:29.916Z,23.60
2018-08-19T15:58:01.881Z,23.50
2018-08-19T16:00:33.229Z,23.50
2018-08-19T16:03:02.810Z,23.40
2018-08-19T16:05:31.979Z,23.50
2018-08-19T16:08:00.779Z,23.40
2018-08-19T16:10:30.576Z,23.40
2018-08-19T16:13:00.852Z,23.50
2018-08-19T16:15:31.543Z,23.50
2018-08-19T16:18:00.473Z,23.50
2018-08-19T16:20:29.482Z,23.50
2018-08-19T16:22:59.185Z,23.40
2018-08-19T16:25:31.027Z,23.40
2018-08-19T16:28:00.032Z,23.40
2018-08-19T16:30:28.553Z,23.40
2018-08-19T16:32:57.213Z,23.30
2018-08-19T16:35:26.234Z,23.30
2018-08-19T16:37:54.784Z,23.30
2018-08-19T16:40:23.667Z,23.30
2018-08-19T16:42:52.308Z,23.30
2018-08-19T16:45:22.213Z,23.30
2018-08-19T16:47:51.110Z,23.30
2018-08-19T16:50:19.870Z,23.30
2018-08-19T16:52:48.658Z,23.20
2018-08-19T16:55:17.827Z,23.20
2018-08-19T16:57:46.540Z,23.10
2018-08-19T17:00:15.128Z,23.10
2018-08-19T17:02:43.991Z,23.10
2018-08-19T17:05:36.447Z,23.10
2018-08-19T17:08:05.492Z,23.10
2018-08-19T17:10:34.267Z,23.00
2018-08-19T17:13:02.801Z,23.00
2018-08-19T17:15:31.708Z,23.00
2018-08-19T17:18:00.760Z,23.00
2018-08-19T17:20:30.497Z,23.00
2018-08-19T17:22:59.359Z,22.90
2018-08-19T17:25:28.520Z,22.90
2018-08-19T17:27:59.697Z,22.90
2018-08-19T17:30:28.548Z,22.80
2018-08-19T17:33:01.834Z,22.80
2018-08-19T17:35:35.221Z,22.70
2018-08-19T17:38:04.099Z,22.60
2018-08-19T17:40:33.302Z,22.60
2018-08-19T17:43:03.505Z,22.60
2018-08-19T17:45:32.292Z,22.50
2018-08-19T17:48:02.401Z,22.50
2018-08-19T17:50:31.191Z,22.40
2018-08-19T17:53:01.003Z,22.40
2018-08-19T17:55:29.570Z,22.30
2018-08-19T17:58:00.041Z,22.30
2018-08-19T18:00:28.652Z,22.20
2018-08-19T18:02:57.277Z,22.20
2018-08-19T18:05:26.465Z,22.10
2018-08-19T18:07:55.902Z,22.10
2018-08-19T18:10:24.774Z,22.00
2018-08-19T18:12:54.104Z,22.00
2018-08-19T18:15:22.693Z,22.00
2018-08-19T18:17:59.187Z,22.00
2018-08-19T18:20:34.305Z,22.00
2018-08-19T18:23:03.738Z,21.90
2018-08-19T18:25:32.754Z,21.90
2018-08-19T18:28:10.895Z,21.90
2018-08-19T18:30:39.929Z,21.90
2018-08-19T18:33:08.539Z,21.90
2018-08-19T18:35:37.314Z,21.90
2018-08-19T18:38:10.984Z,21.90
2018-08-19T18:40:39.700Z,21.90
2018-08-19T18:43:08.266Z,21.80
2018-08-19T18:45:37.047Z,21.80
2018-08-19T18:48:06.369Z,21.80
2018-08-19T18:50:36.549Z,21.80
2018-08-19T18:53:05.771Z,21.80
2018-08-19T18:55:34.336Z,21.80
2018-08-19T18:58:03.096Z,21.80
2018-08-19T19:00:33.701Z,21.80
2018-08-19T19:03:02.218Z,21.70
2018-08-19T19:05:40.846Z,21.70
2018-08-19T19:08:11.734Z,21.70
2018-08-19T19:10:43.717Z,21.70
2018-08-19T19:13:12.887Z,21.70
2018-08-19T19:15:41.446Z,21.70
2018-08-19T19:18:13.093Z,21.70
2018-08-19T19:20:48.021Z,21.70
2018-08-19T19:23:17.348Z,21.70
2018-08-19T19:25:47.189Z,21.70
2018-08-19T19:28:16.633Z,21.70
2018-08-19T19:30:45.212Z,21.70
2018-08-19T19:33:14.142Z,21.70
2018-08-19T19:35:43.286Z,21.70
2018-08-19T19:38:12.421Z,21.70
2018-08-19T19:40:41.378Z,21.70
2018-08-19T19:43:10.680Z,21.70
2018-08-19T19:45:44.905Z,21.70
2018-08-19T19:48:15.025Z,21.80
2018-08-19T19:50:43.948Z,21.70
2018-08-19T19:53:13.484Z,21.70
2018-08-19T19:55:42.795Z,21.70
2018-08-19T19:58:12.530Z,21.70
2018-08-19T20:00:53.911Z,21.70
2018-08-19T20:03:23.997Z,21.70
2018-08-19T20:05:53.445Z,21.70
2018-08-19T20:08:25.093Z,21.70
2018-08-19T20:10:53.610Z,21.70
2018-08-19T20:13:22.852Z,21.80
2018-08-19T20:15:52.394Z,21.70
2018-08-19T20:18:21.203Z,21.80
2018-08-19T20:20:49.790Z,21.80
2018-08-19T20:23:25.833Z,21.80
2018-08-19T20:25:55.534Z,21.80
2018-08-19T20:28:24.185Z,21.80
2018-08-19T20:30:52.905Z,21.80
2018-08-19T20:33:26.860Z,21.80
2018-08-19T20:35:56.295Z,21.80
2018-08-19T20:38:25.760Z,21.80
2018-08-19T20:40:55.334Z,21.80
2018-08-19T20:43:24.659Z,21.80
2018-08-19T20:45:53.302Z,21.80
2018-08-19T20:48:22.637Z,21.90
2018-08-19T20:50:51.344Z,21.90
2018-08-19T20:53:19.966Z,21.90
2018-08-19T20:55:49.012Z,21.90
2018-08-19T20:58:17.676Z,21.80
2018-08-19T21:00:46.141Z,21.90
2018-08-19T21:03:14.641Z,21.90
2018-08-19T21:05:43.157Z,21.90
2018-08-19T21:08:13.437Z,21.90
2018-08-19T21:10:43.137Z,21.90
2018-08-19T21:13:12.872Z,21.90
2018-08-19T21:15:42.858Z,21.90
2018-08-19T21:18:11.690Z,21.90
2018-08-19T21:20:40.288Z,21.90
2018-08-19T21:23:09.128Z,21.90
2018-08-19T21:25:47.777Z,21.90
2018-08-19T21:28:16.860Z,21.90
2018-08-19T21:30:45.352Z,21.90
2018-08-19T21:33:13.823Z,21.90
2018-08-19T21:35:47.692Z,21.90
2018-08-19T21:38:16.957Z,21.90
2018-08-19T21:40:45.840Z,21.90
2018-08-19T21:43:14.461Z,21.90
2018-08-19T21:45:43.035Z,22.00
2018-08-19T21:48:13.652Z,22.00
2018-08-19T21:50:42.381Z,22.00
2018-08-19T21:53:12.490Z,22.00
2018-08-19T21:55:42.385Z,22.00
2018-08-19T21:58:10.953Z,22.00
2018-08-19T22:00:41.990Z,22.00
2018-08-19T22:03:18.231Z,22.00
2018-08-19T22:05:47.563Z,22.00
2018-08-19T22:08:16.133Z,22.00
2018-08-19T22:10:45.709Z,22.00
2018-08-19T22:13:14.223Z,22.00
2018-08-19T22:15:44.575Z,22.00
2018-08-19T22:18:17.977Z,22.00
2018-08-19T22:21:24.494Z,22.00
2018-08-19T22:23:55.646Z,22.00
2018-08-19T22:26:24.819Z,22.00
2018-08-19T22:29:09.423Z,22.00
2018-08-19T22:31:37.950Z,22.00
2018-08-19T22:34:07.129Z,22.00
2018-08-19T22:36:35.797Z,22.00
2018-08-19T22:39:06.783Z,22.00
2018-08-19T22:41:35.275Z,22.00
2018-08-19T22:44:03.769Z,22.00
2018-08-19T22:46:32.219Z,22.00
2018-08-19T22:49:00.698Z,22.00
2018-08-19T22:51:31.785Z,22.00
2018-08-19T22:54:00.312Z,22.00
2018-08-19T22:56:28.830Z,22.00
2018-08-19T22:58:57.296Z,22.00
2018-08-19T23:01:31.101Z,22.00
2018-08-19T23:04:01.845Z,22.00
2018-08-19T23:06:31.103Z,22.00
2018-08-19T23:08:59.764Z,22.00
2018-08-19T23:11:33.321Z,22.00
2018-08-19T23:14:12.909Z,22.00
2018-08-19T23:16:41.630Z,22.00
2018-08-19T23:19:10.293Z,22.00
2018-08-19T23:21:38.755Z,22.00
2018-08-19T23:24:07.313Z,22.00
2018-08-19T23:26:36.190Z,22.00
2018-08-19T23:29:05.081Z,22.10
2018-08-19T23:31:33.555Z,22.10
2018-08-19T23:34:02.153Z,22.10
2018-08-19T23:36:30.604Z,22.10
2018-08-19T23:38:59.242Z,22.00
2018-08-19T23:41:27.823Z,22.10
2018-08-19T23:43:56.361Z,22.10
2018-08-19T23:46:25.214Z,22.10
2018-08-19T23:48:53.928Z,22.10
2018-08-19T23:51:27.633Z,22.10
2018-08-19T23:53:56.147Z,22.10
2018-08-19T23:56:24.772Z,22.10
2018-08-19T23:58:53.857Z,22.00
